createdAt,value
2022-08-09T00:00:50.347Z,0.00
2022-08-09T00:01:55.089Z,0.00
2022-08-09T00:02:51.491Z,0.00
2022-08-09T00:04:10.346Z,0.00
2022-08-09T00:05:00.778Z,0.00
2022-08-09T00:06:18.099Z,0.00
2022-08-09T00:06:50.236Z,0.00
2022-08-09T00:07:49.212Z,0.00
2022-08-09T00:08:49.963Z,0.00
2022-08-09T00:09:49.224Z,0.00
2022-08-09T00:10:49.202Z,0.00
2022-08-09T00:11:58.689Z,0.00
2022-08-09T00:12:52.458Z,0.00
2022-08-09T00:13:49.171Z,0.00
2022-08-09T00:14:49.190Z,0.00
2022-08-09T00:15:57.681Z,0.00
2022-08-09T00:16:50.141Z,0.00
2022-08-09T00:18:05.488Z,0.00
2022-08-09T00:18:50.121Z,0.00
2022-08-09T00:19:49.144Z,0.00
2022-08-09T00:20:49.986Z,0.00
2022-08-09T00:21:56.127Z,0.00
2022-08-09T00:22:50.129Z,0.00
2022-08-09T00:23:54.900Z,0.00
2022-08-09T00:24:50.103Z,0.00
2022-08-09T00:25:51.780Z,0.00
2022-08-09T00:26:49.056Z,0.00
2022-08-09T00:27:49.052Z,0.00
2022-08-09T00:28:52.573Z,0.00
2022-08-09T00:30:16.589Z,0.00
2022-08-09T00:30:50.024Z,0.00
2022-08-09T00:31:59.295Z,0.00
2022-08-09T00:32:50.013Z,0.00
2022-08-09T00:33:50.757Z,0.00
2022-08-09T00:34:52.324Z,0.00
2022-08-09T00:35:48.993Z,0.00
2022-08-09T00:36:49.288Z,0.00
2022-08-09T00:37:48.968Z,0.00
2022-08-09T00:38:50.652Z,0.00
2022-08-09T00:40:13.461Z,0.00
2022-08-09T00:40:52.919Z,0.00
2022-08-09T00:44:10.305Z,0.00
2022-08-09T00:44:13.716Z,0.00
2022-08-09T00:44:14.738Z,0.00
2022-08-09T00:44:49.945Z,0.00
2022-08-09T00:45:53.768Z,0.00
2022-08-09T00:46:57.672Z,0.00
2022-08-09T00:47:49.894Z,0.00
2022-08-09T00:48:49.491Z,0.00
2022-08-09T00:49:55.087Z,0.00
2022-08-09T00:50:52.378Z,0.00
2022-08-09T00:51:56.083Z,0.00
2022-08-09T00:52:49.905Z,0.00
2022-08-09T00:53:48.841Z,0.00
2022-08-09T00:54:48.894Z,0.00
2022-08-09T00:56:04.588Z,0.00
2022-08-09T00:56:49.827Z,0.00
2022-08-09T00:57:49.806Z,0.00
2022-08-09T00:58:49.059Z,0.00
2022-08-09T00:59:52.736Z,0.00
2022-08-09T01:00:48.820Z,0.00
2022-08-09T01:01:48.828Z,0.00
2022-08-09T01:02:48.765Z,0.00
2022-08-09T01:03:48.756Z,0.00
2022-08-09T01:04:48.780Z,0.00
2022-08-09T01:05:53.381Z,0.00
2022-08-09T01:06:54.274Z,0.00
2022-08-09T01:08:00.952Z,0.00
2022-08-09T01:08:51.582Z,0.00
2022-08-09T01:09:48.741Z,0.00
2022-08-09T01:10:51.141Z,0.00
2022-08-09T01:11:53.085Z,0.00
2022-08-09T01:12:50.774Z,0.00
2022-08-09T01:13:59.067Z,0.00
2022-08-09T01:14:52.562Z,0.00
2022-08-09T01:15:52.587Z,0.00
2022-08-09T01:16:49.225Z,0.00
2022-08-09T01:17:48.634Z,0.00
2022-08-09T01:19:04.398Z,0.00
2022-08-09T01:19:57.242Z,0.00
2022-08-09T01:20:49.642Z,0.00
2022-08-09T01:21:51.431Z,0.00
2022-08-09T01:22:51.208Z,0.00
2022-08-09T01:24:02.424Z,0.00
2022-08-09T01:24:52.080Z,0.00
2022-08-09T01:25:48.932Z,0.00
2022-08-09T01:26:52.999Z,0.00
2022-08-09T01:27:50.779Z,0.00
2022-08-09T01:28:48.885Z,0.00
2022-08-09T01:29:55.264Z,0.00
2022-08-09T01:30:51.594Z,0.00
2022-08-09T01:32:32.043Z,0.00
2022-08-09T01:32:49.511Z,0.00
2022-08-09T01:33:48.518Z,0.00
2022-08-09T01:34:48.890Z,0.00
2022-08-09T01:35:51.858Z,0.00
2022-08-09T01:36:48.483Z,0.00
2022-08-09T01:38:08.208Z,0.00
2022-08-09T01:38:49.463Z,0.00
2022-08-09T01:39:48.510Z,0.00
2022-08-09T01:40:53.004Z,0.00
2022-08-09T01:41:55.620Z,0.00
2022-08-09T01:42:49.431Z,0.00
2022-08-09T01:43:51.861Z,0.00
2022-08-09T01:44:48.418Z,0.00
2022-08-09T01:45:48.439Z,0.00
2022-08-09T01:46:48.412Z,0.00
2022-08-09T01:47:49.830Z,0.00
2022-08-09T01:48:48.393Z,0.00
2022-08-09T01:49:50.764Z,0.00
2022-08-09T01:50:55.140Z,0.00
2022-08-09T01:51:52.995Z,0.00
2022-08-09T01:52:48.349Z,0.00
2022-08-09T01:53:49.316Z,0.00
2022-08-09T01:54:49.338Z,0.00
2022-08-09T01:55:48.368Z,0.00
2022-08-09T01:56:51.828Z,0.00
2022-08-09T01:57:50.683Z,0.00
2022-08-09T01:58:49.099Z,0.00
2022-08-09T01:59:51.694Z,0.00
2022-08-09T02:00:50.556Z,0.00
2022-08-09T02:01:58.224Z,0.00
2022-08-09T02:02:49.273Z,0.00
2022-08-09T02:03:48.279Z,0.00
2022-08-09T02:04:48.248Z,0.00
2022-08-09T02:06:04.038Z,0.00
2022-08-09T02:06:58.824Z,0.00
2022-08-09T02:08:35.867Z,0.00
2022-08-09T02:08:58.915Z,0.00
2022-08-09T02:09:59.630Z,0.00
2022-08-09T02:10:50.872Z,0.00
2022-08-09T02:11:48.202Z,0.00
2022-08-09T02:12:48.199Z,0.00
2022-08-09T02:14:06.599Z,0.00
2022-08-09T02:14:51.544Z,0.00
2022-08-09T02:15:49.220Z,0.00
2022-08-09T02:17:00.043Z,0.00
2022-08-09T02:18:09.321Z,0.00
2022-08-09T02:18:49.138Z,0.00
2022-08-09T02:19:48.130Z,0.00
2022-08-09T02:20:48.150Z,0.00
2022-08-09T02:21:48.111Z,0.00
2022-08-09T02:22:49.100Z,0.00
2022-08-09T02:23:48.095Z,0.00
2022-08-09T02:24:51.719Z,0.00
2022-08-09T02:25:52.447Z,0.00
2022-08-09T02:26:48.066Z,0.00
2022-08-09T02:28:00.322Z,0.00
2022-08-09T02:28:49.045Z,0.00
2022-08-09T02:29:49.045Z,0.00
2022-08-09T02:30:48.039Z,0.00
2022-08-09T02:31:48.057Z,0.00
2022-08-09T02:32:48.017Z,0.00
2022-08-09T02:34:06.613Z,0.00
2022-08-09T02:34:51.908Z,0.00
2022-08-09T02:36:03.179Z,0.00
2022-08-09T02:36:49.011Z,0.00
2022-08-09T02:37:47.983Z,0.00
2022-08-09T02:38:48.968Z,0.00
2022-08-09T02:39:49.795Z,0.00
2022-08-09T02:40:48.028Z,0.00
2022-08-09T02:41:47.979Z,0.00
2022-08-09T02:42:51.175Z,0.00
2022-08-09T02:43:54.180Z,0.00
2022-08-09T02:44:48.920Z,0.00
2022-08-09T02:45:47.918Z,0.00
2022-08-09T02:46:47.926Z,0.00
2022-08-09T02:47:59.090Z,0.00
2022-08-09T02:48:51.006Z,0.00
2022-08-09T02:50:01.153Z,0.00
2022-08-09T02:50:53.028Z,0.00
2022-08-09T02:51:48.892Z,0.00
2022-08-09T02:52:48.583Z,0.00
2022-08-09T02:54:00.804Z,0.00
2022-08-09T02:54:54.650Z,0.00
2022-08-09T02:55:58.635Z,0.00
2022-08-09T02:56:51.715Z,0.00
2022-08-09T02:58:00.519Z,0.00
2022-08-09T02:58:48.795Z,0.00
2022-08-09T03:00:11.366Z,0.00
2022-08-09T03:00:57.984Z,0.00
2022-08-09T03:02:05.966Z,0.00
2022-08-09T03:02:58.639Z,0.00
2022-08-09T03:04:16.845Z,0.00
2022-08-09T03:04:50.997Z,0.00
2022-08-09T03:05:48.044Z,0.00
2022-08-09T03:06:49.238Z,0.00
2022-08-09T03:07:54.979Z,0.00
2022-08-09T03:08:49.169Z,0.00
2022-08-09T03:09:54.442Z,0.00
2022-08-09T03:10:50.928Z,0.00
2022-08-09T03:12:08.507Z,0.00
2022-08-09T03:12:51.847Z,0.00
2022-08-09T03:14:01.284Z,0.00
2022-08-09T03:14:48.663Z,0.00
2022-08-09T03:16:06.495Z,0.00
2022-08-09T03:16:48.674Z,0.00
2022-08-09T03:17:47.642Z,0.00
2022-08-09T03:18:50.671Z,0.00
2022-08-09T03:19:58.168Z,0.00
2022-08-09T03:20:48.612Z,4.00
2022-08-09T03:21:50.760Z,0.00
2022-08-09T03:22:56.995Z,0.00
2022-08-09T03:24:03.577Z,4.00
2022-08-09T03:24:51.820Z,4.00
2022-08-09T03:25:57.826Z,4.00
2022-08-09T03:26:48.607Z,4.00
2022-08-09T03:27:47.573Z,4.00
2022-08-09T03:28:47.557Z,4.00
2022-08-09T03:29:57.792Z,8.00
2022-08-09T03:30:49.008Z,8.00
2022-08-09T03:32:00.357Z,8.00
2022-08-09T03:32:48.526Z,12.00
2022-08-09T03:33:54.496Z,12.00
2022-08-09T03:34:48.509Z,16.00
2022-08-09T03:36:13.936Z,16.00
2022-08-09T03:36:59.387Z,20.00
2022-08-09T03:37:56.300Z,24.00
2022-08-09T03:38:48.478Z,28.00
2022-08-09T03:39:48.468Z,32.00
2022-08-09T03:40:48.482Z,36.00
2022-08-09T03:41:48.774Z,44.00
2022-08-09T03:42:47.443Z,48.00
2022-08-09T03:44:02.807Z,56.00
2022-08-09T03:44:48.430Z,64.00
2022-08-09T03:46:04.377Z,72.00
2022-08-09T03:46:48.446Z,84.00
2022-08-09T03:47:47.411Z,92.00
2022-08-09T03:48:51.836Z,104.00
2022-08-09T03:49:57.938Z,120.00
2022-08-09T03:50:48.532Z,132.00
2022-08-09T03:51:58.489Z,148.00
2022-08-09T03:52:48.358Z,164.00
2022-08-09T03:53:47.351Z,180.00
2022-08-09T03:54:47.345Z,204.00
2022-08-09T03:55:47.328Z,220.00
2022-08-09T03:56:47.369Z,244.00
2022-08-09T03:58:03.144Z,264.00
2022-08-09T03:58:48.307Z,292.00
2022-08-09T03:59:54.736Z,320.00
2022-08-09T04:00:48.337Z,348.00
2022-08-09T04:01:47.316Z,376.00
2022-08-09T04:02:47.284Z,408.00
2022-08-09T04:04:02.222Z,436.00
2022-08-09T04:04:48.252Z,472.00
2022-08-09T04:05:47.250Z,508.00
2022-08-09T04:06:49.165Z,548.00
2022-08-09T04:07:56.778Z,580.00
2022-08-09T04:08:48.227Z,620.00
2022-08-09T04:09:52.988Z,664.00
2022-08-09T04:10:49.802Z,704.00
2022-08-09T04:11:47.224Z,748.00
2022-08-09T04:12:47.411Z,792.00
2022-08-09T04:14:37.484Z,840.00
2022-08-09T04:15:00.694Z,888.00
2022-08-09T04:16:20.545Z,936.00
2022-08-09T04:16:48.186Z,988.00
2022-08-09T04:17:47.459Z,1040.00
2022-08-09T04:18:47.148Z,1092.00
2022-08-09T04:19:51.520Z,1144.00
2022-08-09T04:20:48.147Z,1196.00
2022-08-09T04:21:47.154Z,1252.00
2022-08-09T04:22:47.118Z,1308.00
2022-08-09T04:23:53.976Z,1368.00
2022-08-09T04:24:48.095Z,1428.00
2022-08-09T04:25:49.884Z,1488.00
2022-08-09T04:26:48.106Z,1548.00
2022-08-09T04:27:49.052Z,1616.00
2022-08-09T04:28:47.082Z,1680.00
2022-08-09T04:29:49.929Z,1748.00
2022-08-09T04:30:47.039Z,1812.00
2022-08-09T04:31:47.630Z,1880.00
2022-08-09T04:32:47.106Z,1948.00
2022-08-09T04:33:52.837Z,2020.00
2022-08-09T04:34:54.323Z,2088.00
2022-08-09T04:35:48.021Z,2160.00
2022-08-09T04:36:50.440Z,2232.00
2022-08-09T04:37:47.015Z,2308.00
2022-08-09T04:38:46.992Z,2376.00
2022-08-09T04:39:49.416Z,2452.00
2022-08-09T04:40:46.961Z,2528.00
2022-08-09T04:41:46.945Z,2604.00
2022-08-09T04:42:51.972Z,2688.00
2022-08-09T04:44:05.145Z,2776.00
2022-08-09T04:44:49.302Z,2872.00
2022-08-09T04:45:53.889Z,2960.00
2022-08-09T04:46:58.243Z,3044.00
2022-08-09T04:48:01.105Z,3128.00
2022-08-09T04:48:50.467Z,3220.00
2022-08-09T04:49:54.216Z,3304.00
2022-08-09T04:50:50.067Z,3392.00
2022-08-09T04:51:46.869Z,3496.00
2022-08-09T04:52:46.891Z,3596.00
2022-08-09T04:53:49.189Z,3692.00
2022-08-09T04:54:47.836Z,3792.00
2022-08-09T04:55:57.950Z,3904.00
2022-08-09T04:56:47.834Z,4012.00
2022-08-09T04:57:54.176Z,4112.00
2022-08-09T04:58:47.804Z,4216.00
2022-08-09T04:59:47.514Z,4336.00
2022-08-09T05:00:46.791Z,4456.00
2022-08-09T05:01:46.787Z,4564.00
2022-08-09T05:02:52.009Z,4680.00
2022-08-09T05:03:48.193Z,4808.00
2022-08-09T05:04:47.759Z,4932.00
2022-08-09T05:05:51.862Z,5056.00
2022-08-09T05:06:50.592Z,5184.00
2022-08-09T05:07:46.769Z,5300.00
2022-08-09T05:08:48.035Z,5424.00
2022-08-09T05:09:49.729Z,5560.00
2022-08-09T05:10:46.711Z,5696.00
2022-08-09T05:11:46.718Z,5832.00
2022-08-09T05:12:46.731Z,5984.00
2022-08-09T05:13:46.688Z,6136.00
2022-08-09T05:14:46.681Z,6292.00
2022-08-09T05:15:48.183Z,6436.00
2022-08-09T05:16:58.872Z,6576.00
2022-08-09T05:18:39.043Z,6700.00
2022-08-09T05:18:58.685Z,6852.00
2022-08-09T05:19:47.632Z,6984.00
2022-08-09T05:20:47.623Z,7116.00
2022-08-09T05:21:55.706Z,7248.00
2022-08-09T05:23:54.201Z,7376.00
2022-08-09T05:23:55.508Z,7488.00
2022-08-09T05:24:47.730Z,7632.00
2022-08-09T05:25:46.589Z,7760.00
2022-08-09T05:26:47.814Z,7912.00
2022-08-09T05:27:48.000Z,8092.00
2022-08-09T05:28:46.561Z,8292.00
2022-08-09T05:29:46.546Z,8468.00
2022-08-09T05:30:47.977Z,8608.00
2022-08-09T05:31:56.315Z,8748.00
2022-08-09T05:32:50.610Z,8796.00
2022-08-09T05:33:46.515Z,8848.00
2022-08-09T05:34:46.510Z,8904.00
2022-08-09T05:35:46.698Z,8952.00
2022-08-09T05:36:46.918Z,9020.00
2022-08-09T05:37:47.970Z,9096.00
2022-08-09T05:38:46.971Z,9164.00
2022-08-09T05:39:46.576Z,9252.00
2022-08-09T05:40:50.397Z,9356.00
2022-08-09T05:41:47.456Z,9452.00
2022-08-09T05:42:46.475Z,9580.00
2022-08-09T05:43:48.975Z,9688.00
2022-08-09T05:44:50.497Z,9788.00
2022-08-09T05:45:55.643Z,9892.00
2022-08-09T05:46:47.411Z,10008.00
2022-08-09T05:47:52.281Z,10116.00
2022-08-09T05:48:48.629Z,10256.00
2022-08-09T05:50:26.004Z,10384.00
2022-08-09T05:50:51.189Z,10496.00
2022-08-09T05:51:48.370Z,10608.00
2022-08-09T05:52:53.419Z,10728.00
2022-08-09T05:53:56.856Z,10856.00
2022-08-09T05:54:49.191Z,10980.00
2022-08-09T05:55:46.340Z,11108.00
2022-08-09T05:56:55.285Z,11236.00
2022-08-09T05:57:56.420Z,11384.00
2022-08-09T05:58:47.315Z,11496.00
2022-08-09T05:59:46.316Z,11616.00
2022-08-09T06:00:46.302Z,11760.00
2022-08-09T06:01:46.289Z,11884.00
2022-08-09T06:02:46.812Z,12020.00
2022-08-09T06:03:58.546Z,12104.00
2022-08-09T06:04:47.260Z,12256.00
2022-08-09T06:05:57.272Z,12464.00
2022-08-09T06:06:49.977Z,12772.00
2022-08-09T06:08:05.053Z,13096.00
2022-08-09T06:08:52.568Z,13384.00
2022-08-09T06:09:54.857Z,13596.00
2022-08-09T06:10:47.219Z,13688.00
2022-08-09T06:11:56.851Z,13708.00
2022-08-09T06:12:50.494Z,13700.00
2022-08-09T06:13:47.486Z,13740.00
2022-08-09T06:14:46.186Z,13824.00
2022-08-09T06:15:46.847Z,13980.00
2022-08-09T06:16:52.508Z,14180.00
2022-08-09T06:17:47.160Z,14396.00
2022-08-09T06:18:46.188Z,14620.00
2022-08-09T06:19:46.149Z,14692.00
2022-08-09T06:20:49.913Z,14820.00
2022-08-09T06:21:51.523Z,14904.00
2022-08-09T06:22:47.126Z,15004.00
2022-08-09T06:23:58.917Z,15116.00
2022-08-09T06:24:47.104Z,15224.00
2022-08-09T06:25:46.102Z,15392.00
2022-08-09T06:26:46.086Z,15592.00
2022-08-09T06:27:51.309Z,15708.00
2022-08-09T06:28:47.150Z,15812.00
2022-08-09T06:29:48.336Z,15904.00
2022-08-09T06:30:47.059Z,16064.00
2022-08-09T06:32:08.422Z,16144.00
2022-08-09T06:32:59.762Z,16188.00
2022-08-09T06:33:48.606Z,16360.00
2022-08-09T06:34:49.037Z,16736.00
2022-08-09T06:35:57.185Z,16864.00
2022-08-09T06:36:46.990Z,16960.00
2022-08-09T06:37:49.828Z,17120.00
2022-08-09T06:38:50.125Z,17312.00
2022-08-09T06:39:57.985Z,17472.00
2022-08-09T06:40:47.016Z,17632.00
2022-08-09T06:42:08.758Z,17760.00
2022-08-09T06:42:47.016Z,17888.00
2022-08-09T06:43:45.968Z,18048.00
2022-08-09T06:44:45.940Z,18272.00
2022-08-09T06:46:39.270Z,18592.00
2022-08-09T06:46:46.912Z,18848.00
2022-08-09T06:47:45.907Z,19008.00
2022-08-09T06:48:45.925Z,19168.00
2022-08-09T06:50:13.610Z,19392.00
2022-08-09T06:50:46.868Z,19392.00
2022-08-09T06:51:46.892Z,19488.00
2022-08-09T06:52:47.214Z,19584.00
2022-08-09T06:53:45.894Z,19712.00
2022-08-09T06:54:45.847Z,19936.00
2022-08-09T06:55:48.306Z,20288.00
2022-08-09T06:56:46.387Z,20512.00
2022-08-09T06:58:03.222Z,20672.00
2022-08-09T07:00:54.357Z,20928.00
2022-08-09T07:00:55.187Z,21280.00
2022-08-09T07:00:58.664Z,21632.00
2022-08-09T07:01:57.812Z,21856.00
2022-08-09T07:02:46.903Z,22016.00
2022-08-09T07:03:51.854Z,22144.00
2022-08-09T07:04:46.761Z,22368.00
2022-08-09T07:06:03.111Z,22720.00
2022-08-09T07:06:46.771Z,23136.00
2022-08-09T07:08:00.932Z,23680.00
2022-08-09T07:08:49.557Z,24512.00
2022-08-09T07:09:53.394Z,25088.00
2022-08-09T07:10:46.713Z,25984.00
2022-08-09T07:11:53.354Z,27328.00
2022-08-09T07:12:47.062Z,28352.00
2022-08-09T07:14:04.762Z,28864.00
2022-08-09T07:14:51.361Z,29600.00
2022-08-09T07:15:53.996Z,31424.00
2022-08-09T07:16:49.755Z,34240.00
2022-08-09T07:17:56.015Z,37952.00
2022-08-09T07:18:47.357Z,43168.00
2022-08-09T07:19:48.143Z,51008.00
2022-08-09T07:20:47.707Z,60032.00
2022-08-09T07:21:56.034Z,71648.00
2022-08-09T07:22:53.188Z,87456.00
2022-08-09T07:23:57.825Z,103520.00
2022-08-09T07:24:49.622Z,97120.00
2022-08-09T07:25:46.602Z,77472.00
2022-08-09T07:26:45.605Z,64352.00
2022-08-09T07:27:53.575Z,61472.00
2022-08-09T07:29:07.857Z,61472.00
2022-08-09T07:29:46.615Z,58784.00
2022-08-09T07:30:45.567Z,53920.00
2022-08-09T07:31:47.961Z,49472.00
2022-08-09T07:32:46.050Z,46176.00
2022-08-09T07:33:52.638Z,42592.00
2022-08-09T07:34:46.563Z,40416.00
2022-08-09T07:35:53.937Z,39008.00
2022-08-09T07:36:47.355Z,37920.00
2022-08-09T07:37:46.161Z,37632.00
2022-08-09T07:38:52.588Z,37664.00
2022-08-09T07:39:47.560Z,38016.00
2022-08-09T07:40:54.104Z,37472.00
2022-08-09T07:41:47.526Z,36608.00
2022-08-09T07:42:45.475Z,35680.00
2022-08-09T07:43:49.954Z,34912.00
2022-08-09T07:44:51.693Z,35040.00
2022-08-09T07:45:46.447Z,35168.00
2022-08-09T07:46:45.470Z,34784.00
2022-08-09T07:47:49.340Z,34688.00
2022-08-09T07:48:46.429Z,33056.00
2022-08-09T07:50:05.508Z,32928.00
2022-08-09T07:50:52.842Z,33952.00
2022-08-09T07:52:03.093Z,33696.00
2022-08-09T07:52:46.389Z,33120.00
2022-08-09T07:54:07.022Z,33408.00
2022-08-09T07:54:51.594Z,34624.00
2022-08-09T07:56:02.760Z,34592.00
2022-08-09T07:56:49.644Z,34240.00
2022-08-09T07:57:46.809Z,34912.00
2022-08-09T07:58:47.351Z,35680.00
2022-08-09T07:59:51.972Z,37632.00
2022-08-09T08:00:56.189Z,39328.00
2022-08-09T08:01:52.935Z,39904.00
2022-08-09T08:02:47.859Z,40192.00
2022-08-09T08:03:45.323Z,41248.00
2022-08-09T08:04:49.027Z,40672.00
2022-08-09T08:05:57.573Z,39360.00
2022-08-09T08:06:56.192Z,38464.00
2022-08-09T08:08:44.698Z,37792.00
2022-08-09T08:09:03.480Z,38112.00
2022-08-09T08:09:53.642Z,39104.00
2022-08-09T08:10:48.677Z,40096.00
2022-08-09T08:12:10.009Z,41216.00
2022-08-09T08:12:46.453Z,40576.00
2022-08-09T08:13:57.254Z,38240.00
2022-08-09T08:14:46.258Z,37472.00
2022-08-09T08:15:45.227Z,39456.00
2022-08-09T08:17:00.349Z,42432.00
2022-08-09T08:17:54.889Z,45568.00
2022-08-09T08:18:46.317Z,47520.00
2022-08-09T08:19:45.221Z,46816.00
2022-08-09T08:20:45.191Z,42272.00
2022-08-09T08:21:50.876Z,37344.00
2022-08-09T08:22:48.491Z,34784.00
2022-08-09T08:23:45.175Z,33440.00
2022-08-09T08:24:49.172Z,32800.00
2022-08-09T08:25:49.787Z,32704.00
2022-08-09T08:26:56.093Z,32480.00
2022-08-09T08:27:46.141Z,32992.00
2022-08-09T08:28:45.245Z,46048.00
2022-08-09T08:29:50.135Z,77792.00
2022-08-09T08:30:46.781Z,96992.00
2022-08-09T08:32:02.998Z,87680.00
2022-08-09T08:32:53.478Z,83456.00
2022-08-09T08:33:52.281Z,82464.00
2022-08-09T08:34:46.612Z,82176.00
2022-08-09T08:35:58.756Z,82272.00
2022-08-09T08:36:46.079Z,80992.00
2022-08-09T08:37:59.483Z,81792.00
2022-08-09T08:38:46.060Z,83872.00
2022-08-09T08:39:45.176Z,84480.00
2022-08-09T08:40:45.059Z,83744.00
2022-08-09T08:41:51.860Z,84320.00
2022-08-09T08:42:47.428Z,84448.00
2022-08-09T08:43:45.028Z,83584.00
2022-08-09T08:44:46.278Z,83808.00
2022-08-09T08:45:51.644Z,84608.00
2022-08-09T08:47:02.516Z,85600.00
2022-08-09T08:47:46.003Z,84640.00
2022-08-09T08:48:51.152Z,83552.00
2022-08-09T08:49:47.250Z,84192.00
2022-08-09T08:50:45.419Z,83040.00
2022-08-09T08:52:00.153Z,82848.00
2022-08-09T08:52:57.769Z,84576.00
2022-08-09T08:54:03.340Z,83488.00
2022-08-09T08:54:45.986Z,84352.00
2022-08-09T08:55:44.948Z,84032.00
2022-08-09T08:56:44.958Z,81248.00
2022-08-09T08:57:56.595Z,79776.00
2022-08-09T08:58:46.584Z,81472.00
2022-08-09T08:59:47.317Z,81408.00
2022-08-09T09:00:45.935Z,80800.00
2022-08-09T09:01:52.723Z,79136.00
2022-08-09T09:02:50.000Z,80352.00
2022-08-09T09:03:46.048Z,81824.00
2022-08-09T09:04:52.517Z,76960.00
2022-08-09T09:05:58.305Z,65216.00
2022-08-09T09:06:46.256Z,61728.00
2022-08-09T09:07:44.887Z,71360.00
2022-08-09T09:08:44.869Z,79584.00
2022-08-09T09:09:59.683Z,80224.00
2022-08-09T09:10:45.861Z,80768.00
2022-08-09T09:11:44.831Z,81440.00
2022-08-09T09:12:44.829Z,80224.00
2022-08-09T09:13:56.261Z,81184.00
2022-08-09T09:14:45.810Z,82976.00
2022-08-09T09:15:49.354Z,82688.00
2022-08-09T09:16:44.829Z,82208.00
2022-08-09T09:17:49.182Z,82848.00
2022-08-09T09:18:51.876Z,82624.00
2022-08-09T09:19:46.784Z,83936.00
2022-08-09T09:20:44.804Z,83712.00
2022-08-09T09:21:46.841Z,83008.00
2022-08-09T09:22:44.759Z,81120.00
2022-08-09T09:23:49.570Z,80224.00
2022-08-09T09:24:45.746Z,76320.00
2022-08-09T09:26:03.773Z,77472.00
2022-08-09T09:26:45.767Z,78368.00
2022-08-09T09:28:05.156Z,79328.00
2022-08-09T09:29:04.419Z,80608.00
2022-08-09T09:30:10.619Z,81600.00
2022-08-09T09:30:47.402Z,81024.00
2022-08-09T09:32:06.597Z,81504.00
2022-08-09T09:32:45.698Z,82368.00
2022-08-09T09:33:45.282Z,83232.00
2022-08-09T09:34:44.826Z,82752.00
2022-08-09T09:35:48.007Z,81664.00
2022-08-09T09:36:54.345Z,79392.00
2022-08-09T09:37:45.672Z,79712.00
2022-08-09T09:38:44.659Z,80416.00
2022-08-09T09:39:55.178Z,80352.00
2022-08-09T09:40:46.350Z,80160.00
2022-08-09T09:41:49.426Z,79904.00
2022-08-09T09:42:46.236Z,80384.00
2022-08-09T09:44:10.615Z,80288.00
2022-08-09T09:44:45.610Z,79616.00
2022-08-09T09:46:39.888Z,81792.00
2022-08-09T09:46:52.444Z,83616.00
2022-08-09T09:47:48.050Z,84448.00
2022-08-09T09:48:45.614Z,83744.00
2022-08-09T09:50:07.594Z,82464.00
2022-08-09T09:50:50.949Z,82784.00
2022-08-09T09:51:47.921Z,84160.00
2022-08-09T09:52:53.705Z,84704.00
2022-08-09T09:54:00.751Z,84736.00
2022-08-09T09:54:48.563Z,84384.00
2022-08-09T09:55:44.584Z,82336.00
2022-08-09T09:58:01.681Z,81504.00
2022-08-09T09:58:04.139Z,80032.00
2022-08-09T09:58:45.532Z,78400.00
2022-08-09T09:59:44.538Z,77824.00
2022-08-09T10:00:55.330Z,78528.00
2022-08-09T10:01:45.515Z,80096.00
2022-08-09T10:02:44.506Z,79136.00
2022-08-09T10:03:57.447Z,59808.00
2022-08-09T10:04:45.483Z,65120.00
2022-08-09T10:06:03.792Z,82272.00
2022-08-09T10:06:46.993Z,84672.00
2022-08-09T10:08:10.930Z,84448.00
2022-08-09T10:08:54.867Z,82720.00
2022-08-09T10:09:48.447Z,82624.00
2022-08-09T10:10:45.490Z,81632.00
2022-08-09T10:11:59.442Z,75744.00
2022-08-09T10:12:51.799Z,68352.00
2022-08-09T10:13:45.625Z,70848.00
2022-08-09T10:14:48.824Z,74720.00
2022-08-09T10:16:08.995Z,75776.00
2022-08-09T10:16:56.665Z,78432.00
2022-08-09T10:17:55.649Z,80672.00
2022-08-09T10:18:51.200Z,79328.00
2022-08-09T10:19:45.828Z,79200.00
2022-08-09T10:20:44.727Z,79456.00
2022-08-09T10:21:44.380Z,79584.00
2022-08-09T10:22:44.772Z,81024.00
2022-08-09T10:23:44.364Z,80832.00
2022-08-09T10:24:44.355Z,80032.00
2022-08-09T10:26:08.054Z,77568.00
2022-08-09T10:26:46.784Z,79488.00
2022-08-09T10:27:45.267Z,79840.00
2022-08-09T10:28:49.121Z,77664.00
2022-08-09T10:30:28.329Z,78368.00
2022-08-09T10:32:13.630Z,79264.00
2022-08-09T10:32:46.316Z,78816.00
2022-08-09T10:34:08.451Z,80992.00
2022-08-09T10:34:45.302Z,81792.00
2022-08-09T10:35:44.318Z,80992.00
2022-08-09T10:36:45.259Z,78560.00
2022-08-09T10:37:44.272Z,75488.00
2022-08-09T10:38:56.781Z,76224.00
2022-08-09T10:39:49.298Z,77824.00
2022-08-09T10:40:44.714Z,78624.00
2022-08-09T10:41:45.255Z,78592.00
2022-08-09T10:42:45.944Z,76864.00
2022-08-09T10:43:47.049Z,75360.00
2022-08-09T10:44:45.233Z,76384.00
2022-08-09T10:45:58.524Z,77248.00
2022-08-09T10:46:55.087Z,76352.00
2022-08-09T10:48:26.518Z,74848.00
2022-08-09T10:48:45.207Z,75168.00
2022-08-09T10:49:51.360Z,72640.00
2022-08-09T10:50:45.229Z,73024.00
2022-08-09T10:51:44.185Z,72704.00
2022-08-09T10:52:44.766Z,69984.00
2022-08-09T10:53:46.809Z,68960.00
2022-08-09T10:54:45.170Z,70176.00
2022-08-09T10:55:58.046Z,74016.00
2022-08-09T10:56:45.156Z,71488.00
2022-08-09T10:57:44.143Z,66944.00
2022-08-09T10:58:44.146Z,57888.00
2022-08-09T10:59:57.787Z,46176.00
2022-08-09T11:01:11.098Z,34304.00
2022-08-09T11:03:13.976Z,27456.00
2022-08-09T11:03:14.777Z,24704.00
2022-08-09T11:03:50.760Z,23872.00
2022-08-09T11:04:56.154Z,23360.00
2022-08-09T11:06:00.095Z,22944.00
2022-08-09T11:06:45.093Z,22752.00
2022-08-09T11:07:56.611Z,22560.00
2022-08-09T11:08:47.948Z,22400.00
2022-08-09T11:09:48.304Z,22336.00
2022-08-09T11:10:47.110Z,22272.00
2022-08-09T11:11:51.923Z,22208.00
2022-08-09T11:12:45.055Z,22144.00
2022-08-09T11:13:51.064Z,22080.00
2022-08-09T11:14:45.045Z,22144.00
2022-08-09T11:16:04.879Z,22144.00
2022-08-09T11:16:47.137Z,22144.00
2022-08-09T11:17:44.019Z,22112.00
2022-08-09T11:18:45.092Z,22016.00
2022-08-09T11:20:12.026Z,22336.00
2022-08-09T11:20:45.032Z,22656.00
2022-08-09T11:21:43.999Z,22432.00
2022-08-09T11:22:45.028Z,22464.00
2022-08-09T11:23:46.334Z,22784.00
2022-08-09T11:24:44.973Z,23136.00
2022-08-09T11:25:48.002Z,24320.00
2022-08-09T11:26:47.378Z,35200.00
2022-08-09T11:28:03.692Z,49152.00
2022-08-09T11:28:56.457Z,56704.00
2022-08-09T11:30:06.485Z,70304.00
2022-08-09T11:30:45.897Z,66112.00
2022-08-09T11:31:48.844Z,29600.00
2022-08-09T11:32:44.920Z,25280.00
2022-08-09T11:33:43.956Z,24608.00
2022-08-09T11:34:43.934Z,24256.00
2022-08-09T11:35:49.310Z,24224.00
2022-08-09T11:36:45.102Z,24288.00
2022-08-09T11:37:43.896Z,24480.00
2022-08-09T11:38:44.886Z,24480.00
2022-08-09T11:39:44.930Z,24480.00
2022-08-09T11:40:43.881Z,24160.00
2022-08-09T11:41:44.130Z,23776.00
2022-08-09T11:42:43.875Z,23776.00
2022-08-09T11:43:43.887Z,23680.00
2022-08-09T11:44:43.860Z,23264.00
2022-08-09T11:45:43.861Z,23168.00
2022-08-09T11:46:43.871Z,23296.00
2022-08-09T11:47:44.835Z,23520.00
2022-08-09T11:48:43.830Z,23584.00
2022-08-09T11:50:53.985Z,23584.00
2022-08-09T11:50:55.503Z,23872.00
2022-08-09T11:53:01.014Z,24032.00
2022-08-09T11:53:20.852Z,24352.00
2022-08-09T11:53:59.385Z,23072.00
2022-08-09T11:54:45.790Z,15132.00
2022-08-09T11:55:52.103Z,14480.00
2022-08-09T11:56:47.893Z,12924.00
2022-08-09T11:58:00.102Z,12048.00
2022-08-09T11:58:50.028Z,17152.00
2022-08-09T11:59:44.762Z,20832.00
2022-08-09T12:00:44.873Z,23808.00
2022-08-09T12:02:17.866Z,24512.00
2022-08-09T12:02:44.851Z,24480.00
2022-08-09T12:03:57.311Z,25024.00
2022-08-09T12:04:44.775Z,24576.00
2022-08-09T12:05:47.034Z,24704.00
2022-08-09T12:06:53.108Z,24768.00
2022-08-09T12:07:44.717Z,25536.00
2022-08-09T12:08:43.707Z,25760.00
2022-08-09T12:09:44.024Z,25152.00
2022-08-09T12:10:44.728Z,24256.00
2022-08-09T12:12:02.459Z,23712.00
2022-08-09T12:12:44.667Z,23328.00
2022-08-09T12:14:10.258Z,23616.00
2022-08-09T12:15:04.389Z,23584.00
2022-08-09T12:15:48.718Z,23712.00
2022-08-09T12:16:44.641Z,23776.00